Airfield :
LOGIN :

Register | Disclaimer

   EN    FR    IT 

 










Legend :    VFR   Marginal VFR   IFR   Intensive IFR   Very Intensive IFR
Visi :
Ceiling :
>= 8 km
>= 3000ft
5 to 8 km
1000 to 3000 ft
1500m to 5 km
500 to 1000 ft
800 to 1500m
200 to 500 ft
< 800m
< 200 ft
Symbols :   Thunderstorms  Fog  Heavy snow  Heavy precipitations  Wind > 20 kt
SIGMETs :     Misc.  Thunderstorms  Icing  Turbulence  Mountain Waves  Volcanic Ashes






- Airport Elevation : 20 ft
- IATA code : LSI


EGPB - Sumburgh

CURRENT METAR :
  • 271020Z 07016KT 9999 VCSH FEW015CB SCT024 10/08 Q0993 TEMPO SHRA

EXPIRED METARs :
  • 270920Z 08012KT 9999 VCSH FEW012CB SCT017 10/08 Q0992 TEMPO SHRA
  • 270850Z 07012KT 9999 -SHRA -DZ FEW012CB SCT025 10/07 Q0991
  • 270820Z 07008KT 9999 FEW013CB SCT020 10/07 Q0991
  • 270750Z 05004KT 9999 FEW013CB 09/07 Q0990

TAF TAF EGPB
Valid from the 27 at 09:00 until the 27 at 18:00 UTC


270756Z 2709/2718 04007KT 9999 FEW015 SCT020
BECMG 2709/2711 04017KT
TEMPO 2709/2718 6000 SHRA
TEMPO 2715/2718 BKN010
BECMG 2716/2718 34014KT
PROB30
TEMPO 2716/2718 3000 +SHRA BKN006



MET'MAP, your aeronautical weather chart ! - Copyright ORBIFLY December 2007 - Disclaimer

ORBIFLY MET'MAP TEAM :

Programming & Development : Alexandra Zaïnal
Original concept : Baudouin d'Aumeries
Technical & hardware support : Manuel Goepfert
Assistance : Marc-Olivier Méhu




SOURCES & CREDITS :

   NOAA